createdAt,value
2023-05-05T04:00:49.649Z,74.62
2023-05-05T04:01:50.670Z,75.73
2023-05-05T04:02:50.726Z,74.52
2023-05-05T04:03:50.698Z,75.84
2023-05-05T04:04:50.605Z,75.94
2023-05-05T04:05:50.630Z,75.84
2023-05-05T04:06:50.642Z,77.26
2023-05-05T04:07:50.609Z,76.68
2023-05-05T04:08:50.577Z,78.72
2023-05-05T04:09:50.542Z,77.60
2023-05-05T04:10:50.586Z,76.07
2023-05-05T04:11:50.557Z,77.56
2023-05-05T04:12:50.635Z,74.82
2023-05-05T04:13:50.504Z,77.36
2023-05-05T04:14:50.495Z,77.97
2023-05-05T04:15:50.544Z,76.14
2023-05-05T04:16:50.496Z,74.07
2023-05-05T04:17:50.766Z,76.10
2023-05-05T04:18:50.463Z,76.10
2023-05-05T04:19:51.102Z,77.33
2023-05-05T04:20:51.112Z,76.51
2023-05-05T04:21:50.432Z,76.41
2023-05-05T04:22:52.625Z,77.73
2023-05-05T04:23:50.407Z,78.95
2023-05-05T04:24:50.395Z,79.19
2023-05-05T04:25:50.382Z,78.99
2023-05-05T04:26:50.378Z,78.28
2023-05-05T04:27:50.397Z,78.34
2023-05-05T04:28:50.361Z,79.97
2023-05-05T04:29:50.336Z,78.55
2023-05-05T04:30:50.352Z,78.44
2023-05-05T04:31:50.397Z,78.95
2023-05-05T04:32:50.357Z,78.64
2023-05-05T04:33:50.294Z,77.80
2023-05-05T04:34:50.284Z,78.51
2023-05-05T04:35:50.268Z,76.54
2023-05-05T04:36:50.260Z,76.44
2023-05-05T04:37:50.270Z,76.64
2023-05-05T04:38:50.291Z,77.56
2023-05-05T04:39:50.231Z,78.06
2023-05-05T04:40:50.218Z,78.88
2023-05-05T04:41:50.226Z,79.18
2023-05-05T04:42:50.237Z,79.38
2023-05-05T04:43:50.191Z,79.42
2023-05-05T04:44:50.197Z,79.72
2023-05-05T04:45:50.163Z,80.13
2023-05-05T04:46:50.218Z,78.88
2023-05-05T04:47:50.218Z,79.99
2023-05-05T04:48:50.135Z,79.90
2023-05-05T04:49:50.160Z,80.71
2023-05-05T04:50:50.135Z,80.91
2023-05-05T04:51:50.107Z,80.44
2023-05-05T04:52:52.557Z,80.40
2023-05-05T04:53:50.082Z,79.99
2023-05-05T04:54:50.074Z,81.41
2023-05-05T04:55:50.052Z,80.94
2023-05-05T04:56:50.097Z,80.54
2023-05-05T04:57:50.085Z,80.54
2023-05-05T04:58:50.048Z,80.03
2023-05-05T04:59:50.039Z,80.64
2023-05-05T05:00:50.038Z,81.15
2023-05-05T05:01:50.017Z,81.76
2023-05-05T05:02:50.072Z,82.26
2023-05-05T05:03:50.016Z,82.17
2023-05-05T05:04:49.968Z,81.66
2023-05-05T05:05:49.981Z,82.06
2023-05-05T05:06:49.991Z,81.45
2023-05-05T05:07:49.954Z,82.78
2023-05-05T05:08:49.909Z,81.66
2023-05-05T05:09:49.910Z,81.62
2023-05-05T05:10:50.245Z,81.92
2023-05-05T05:11:49.907Z,80.36
2023-05-05T05:12:49.945Z,80.36
2023-05-05T05:13:49.881Z,80.22
2023-05-05T05:14:49.862Z,80.63
2023-05-05T05:15:49.859Z,80.59
2023-05-05T05:16:49.905Z,80.49
2023-05-05T05:17:49.857Z,80.69
2023-05-05T05:18:49.810Z,80.86
2023-05-05T05:19:49.793Z,80.65
2023-05-05T05:20:49.819Z,81.43
2023-05-05T05:21:49.788Z,79.50
2023-05-05T05:22:49.781Z,79.50
2023-05-05T05:23:49.757Z,80.72
2023-05-05T05:24:49.759Z,81.02
2023-05-05T05:25:49.750Z,79.71
2023-05-05T05:26:49.736Z,80.52
2023-05-05T05:27:58.511Z,80.31
2023-05-05T05:28:49.730Z,80.01
2023-05-05T05:29:49.698Z,79.80
2023-05-05T05:30:49.694Z,80.21
2023-05-05T05:31:49.697Z,82.14
2023-05-05T05:32:49.685Z,83.15
2023-05-05T05:33:49.637Z,83.96
2023-05-05T05:34:49.655Z,83.04
2023-05-05T05:35:49.648Z,83.80
2023-05-05T05:36:49.615Z,84.41
2023-05-05T05:37:49.656Z,85.01
2023-05-05T05:38:49.636Z,85.01
2023-05-05T05:39:49.614Z,84.10
2023-05-05T05:40:49.606Z,83.69
2023-05-05T05:41:49.566Z,85.27
2023-05-05T05:42:49.548Z,85.68
2023-05-05T05:43:49.555Z,85.88
2023-05-05T05:44:49.533Z,85.78
2023-05-05T05:45:49.574Z,84.56
2023-05-05T05:46:49.540Z,84.16
2023-05-05T05:47:49.524Z,85.64
2023-05-05T05:48:49.532Z,86.45
2023-05-05T05:49:49.558Z,84.02
2023-05-05T05:50:49.542Z,84.63
2023-05-05T05:51:49.559Z,83.82
2023-05-05T05:52:49.460Z,82.67
2023-05-05T05:53:49.453Z,82.56
2023-05-05T05:54:49.520Z,84.28
2023-05-05T05:55:49.415Z,84.19
2023-05-05T05:56:49.404Z,83.07
2023-05-05T05:57:49.390Z,82.46
2023-05-05T05:58:49.412Z,82.46
2023-05-05T05:59:49.376Z,83.23
2023-05-05T06:00:49.368Z,83.64
2023-05-05T06:01:49.343Z,82.53
2023-05-05T06:02:49.392Z,84.45
2023-05-05T06:03:49.497Z,81.92
2023-05-05T06:04:49.324Z,81.31
2023-05-05T06:05:49.323Z,81.88
2023-05-05T06:06:49.302Z,81.17
2023-05-05T06:07:49.333Z,81.37
2023-05-05T06:08:49.274Z,80.66
2023-05-05T06:09:49.272Z,80.46
2023-05-05T06:10:49.281Z,80.53
2023-05-05T06:11:49.268Z,81.03
2023-05-05T06:12:49.311Z,80.63
2023-05-05T06:13:49.228Z,80.83
2023-05-05T06:14:49.214Z,81.23
2023-05-05T06:15:49.223Z,81.34
2023-05-05T06:16:49.241Z,81.34
2023-05-05T06:17:49.223Z,81.23
2023-05-05T06:18:49.174Z,82.45
2023-05-05T06:19:49.197Z,82.14
2023-05-05T06:20:49.159Z,81.34
2023-05-05T06:21:49.205Z,81.94
2023-05-05T06:22:49.136Z,81.74
2023-05-05T06:23:49.123Z,82.81
2023-05-05T06:24:50.030Z,81.70
2023-05-05T06:25:49.103Z,82.61
2023-05-05T06:26:49.093Z,81.80
2023-05-05T06:27:49.084Z,80.90
2023-05-05T06:28:49.071Z,80.93
2023-05-05T06:29:49.108Z,82.41
2023-05-05T06:30:49.038Z,81.90
2023-05-05T06:31:49.211Z,82.81
2023-05-05T06:32:49.753Z,82.21
2023-05-05T06:33:49.014Z,82.78
2023-05-05T06:34:49.018Z,82.21
2023-05-05T06:35:49.019Z,81.67
2023-05-05T06:36:49.035Z,80.65
2023-05-05T06:37:48.990Z,80.85
2023-05-05T06:38:48.954Z,80.82
2023-05-05T06:39:49.007Z,80.31
2023-05-05T06:40:48.940Z,80.82
2023-05-05T06:41:48.935Z,81.68
2023-05-05T06:42:48.949Z,80.38
2023-05-05T06:43:48.914Z,79.87
2023-05-05T06:44:48.938Z,80.68
2023-05-05T06:45:48.918Z,79.36
2023-05-05T06:46:48.927Z,79.27
2023-05-05T06:47:48.910Z,79.47
2023-05-05T06:48:48.858Z,79.50
2023-05-05T06:49:48.905Z,79.21
2023-05-05T06:50:48.822Z,79.91
2023-05-05T06:51:48.856Z,78.70
2023-05-05T06:52:48.819Z,79.21
2023-05-05T06:53:48.804Z,79.91
2023-05-05T06:54:48.797Z,80.31
2023-05-05T06:55:48.795Z,78.90
2023-05-05T06:56:48.767Z,79.85
2023-05-05T06:57:48.777Z,79.41
2023-05-05T06:58:48.763Z,79.41
2023-05-05T06:59:48.732Z,78.80
2023-05-05T07:00:48.787Z,80.51
2023-05-05T07:01:48.800Z,79.81
2023-05-05T07:02:48.728Z,78.86
2023-05-05T07:03:48.704Z,78.56
2023-05-05T07:04:48.722Z,79.36
2023-05-05T07:05:48.681Z,79.57
2023-05-05T07:06:48.680Z,79.16
2023-05-05T07:07:48.657Z,80.38
2023-05-05T07:08:48.669Z,78.96
2023-05-05T07:09:48.729Z,79.16
2023-05-05T07:10:48.637Z,78.86
2023-05-05T07:11:48.632Z,80.13
2023-05-05T07:12:48.715Z,78.12
2023-05-05T07:13:48.590Z,78.52
2023-05-05T07:14:48.573Z,79.43
2023-05-05T07:15:48.654Z,78.92
2023-05-05T07:16:48.615Z,78.63
2023-05-05T07:17:48.562Z,78.32
2023-05-05T07:18:48.531Z,79.43
2023-05-05T07:19:48.532Z,77.11
2023-05-05T07:20:48.522Z,77.42
2023-05-05T07:21:48.524Z,77.31
2023-05-05T07:22:48.497Z,76.54
2023-05-05T07:23:48.493Z,76.54
2023-05-05T07:24:49.732Z,77.66
2023-05-05T07:25:48.487Z,76.14
2023-05-05T07:26:48.452Z,76.31
2023-05-05T07:27:48.468Z,75.40
2023-05-05T07:28:48.443Z,75.40
2023-05-05T07:29:48.432Z,75.60
2023-05-05T07:30:48.446Z,75.20
2023-05-05T07:31:48.420Z,75.80
2023-05-05T07:32:48.450Z,76.10
2023-05-05T07:33:48.377Z,76.47
2023-05-05T07:34:48.538Z,76.57
2023-05-05T07:35:48.388Z,75.83
2023-05-05T07:36:48.341Z,74.93
2023-05-05T07:37:48.360Z,72.91
2023-05-05T07:38:48.325Z,73.58
2023-05-05T07:39:48.309Z,74.79
2023-05-05T07:40:48.344Z,75.70
2023-05-05T07:41:48.308Z,72.37
2023-05-05T07:42:48.278Z,74.99
2023-05-05T07:43:48.277Z,75.15
2023-05-05T07:44:48.252Z,72.74
2023-05-05T07:45:48.365Z,72.74
2023-05-05T07:46:48.232Z,73.58
2023-05-05T07:47:48.259Z,72.31
2023-05-05T07:48:48.238Z,71.70
2023-05-05T07:49:48.208Z,74.08
2023-05-05T07:50:48.211Z,73.08
2023-05-05T07:51:48.178Z,74.05
2023-05-05T07:52:51.816Z,72.44
2023-05-05T07:53:48.190Z,71.23
2023-05-05T07:54:48.186Z,68.41
2023-05-05T07:55:48.161Z,70.73
2023-05-05T07:56:48.120Z,69.76
2023-05-05T07:57:48.117Z,69.32
2023-05-05T07:58:48.118Z,69.59
2023-05-05T07:59:48.112Z,72.71
2023-05-05T08:00:48.110Z,71.16
2023-05-05T08:01:48.075Z,70.23
2023-05-05T08:02:48.276Z,67.55
2023-05-05T08:03:48.329Z,68.82
2023-05-05T08:04:48.120Z,69.25
2023-05-05T08:05:49.915Z,70.93
2023-05-05T08:06:48.039Z,71.83
2023-05-05T08:07:48.031Z,69.62
2023-05-05T08:08:48.003Z,68.41
2023-05-05T08:09:48.002Z,69.82
2023-05-05T08:10:48.035Z,70.32
2023-05-05T08:11:47.975Z,68.29
2023-05-05T08:12:48.051Z,68.21
2023-05-05T08:13:47.951Z,67.01
2023-05-05T08:14:47.942Z,68.92
2023-05-05T08:15:48.021Z,68.18
2023-05-05T08:16:47.921Z,69.59
2023-05-05T08:17:47.988Z,67.98
2023-05-05T08:18:47.940Z,67.21
2023-05-05T08:19:47.889Z,69.39
2023-05-05T08:20:47.877Z,67.28
2023-05-05T08:21:47.878Z,66.67
2023-05-05T08:22:47.883Z,66.17
2023-05-05T08:23:47.876Z,66.31
2023-05-05T08:24:47.878Z,67.55
2023-05-05T08:25:47.832Z,68.92
2023-05-05T08:26:47.878Z,68.32
2023-05-05T08:27:47.825Z,66.98
2023-05-05T08:28:47.806Z,66.00
2023-05-05T08:29:47.801Z,65.91
2023-05-05T08:30:47.803Z,67.41
2023-05-05T08:31:47.792Z,66.67
2023-05-05T08:32:47.778Z,68.15
2023-05-05T08:33:47.767Z,67.69
2023-05-05T08:34:47.754Z,64.18
2023-05-05T08:35:47.784Z,68.05
2023-05-05T08:36:47.725Z,63.75
2023-05-05T08:37:47.711Z,64.65
2023-05-05T08:38:47.706Z,65.75
2023-05-05T08:39:47.689Z,65.78
2023-05-05T08:40:47.740Z,65.94
2023-05-05T08:41:47.669Z,67.35
2023-05-05T08:42:47.649Z,66.11
2023-05-05T08:43:47.692Z,66.78
2023-05-05T08:44:47.630Z,64.54
2023-05-05T08:45:47.649Z,64.72
2023-05-05T08:46:47.633Z,63.01
2023-05-05T08:47:47.638Z,63.28
2023-05-05T08:48:47.622Z,65.72
2023-05-05T08:49:47.621Z,63.21
2023-05-05T08:50:47.577Z,63.64
2023-05-05T08:51:47.562Z,64.22
2023-05-05T08:52:48.647Z,65.59
2023-05-05T08:53:47.597Z,62.72
2023-05-05T08:54:47.532Z,62.32
2023-05-05T08:55:47.569Z,63.49
2023-05-05T08:56:47.525Z,61.82
2023-05-05T08:57:47.532Z,61.45
2023-05-05T08:58:47.500Z,62.24
2023-05-05T08:59:47.479Z,65.55
2023-05-05T09:00:47.504Z,62.24
2023-05-05T09:01:47.477Z,64.34
2023-05-05T09:02:47.545Z,63.45
2023-05-05T09:03:48.342Z,64.75
2023-05-05T09:04:47.431Z,63.04
2023-05-05T09:05:47.408Z,64.12
2023-05-05T09:06:47.414Z,63.75
2023-05-05T09:07:47.590Z,61.02
2023-05-05T09:08:47.390Z,60.55
2023-05-05T09:09:47.371Z,60.89
2023-05-05T09:10:47.372Z,59.41
2023-05-05T09:11:47.357Z,57.13
2023-05-05T09:12:47.378Z,57.82
2023-05-05T09:13:47.359Z,57.78
2023-05-05T09:14:47.354Z,57.48
2023-05-05T09:15:47.299Z,58.78
2023-05-05T09:16:47.307Z,59.45
2023-05-05T09:17:47.376Z,61.22
2023-05-05T09:18:47.275Z,55.58
2023-05-05T09:19:47.321Z,59.06
2023-05-05T09:20:47.237Z,56.65
2023-05-05T09:21:47.243Z,57.45
2023-05-05T09:22:47.296Z,55.05
2023-05-05T09:23:47.233Z,55.41
2023-05-05T09:24:47.215Z,54.83
2023-05-05T09:25:47.207Z,59.32
2023-05-05T09:26:47.201Z,56.21
2023-05-05T09:27:47.249Z,57.10
2023-05-05T09:28:47.159Z,56.87
2023-05-05T09:29:47.225Z,57.49
2023-05-05T09:30:47.182Z,56.61
2023-05-05T09:31:47.187Z,54.30
2023-05-05T09:32:47.247Z,51.79
2023-05-05T09:33:47.134Z,50.93
2023-05-05T09:34:47.105Z,53.76
2023-05-05T09:35:47.111Z,50.81
2023-05-05T09:36:47.096Z,52.59
2023-05-05T09:37:47.098Z,53.01
2023-05-05T09:38:47.077Z,50.78
2023-05-05T09:39:47.052Z,53.09
2023-05-05T09:40:47.051Z,51.42
2023-05-05T09:41:47.077Z,53.16
2023-05-05T09:42:47.031Z,52.49
2023-05-05T09:43:47.009Z,52.29
2023-05-05T09:44:47.019Z,51.50
2023-05-05T09:45:46.984Z,49.66
2023-05-05T09:46:47.057Z,49.29
2023-05-05T09:47:47.151Z,51.12
2023-05-05T09:48:46.962Z,54.43
2023-05-05T09:49:46.960Z,51.89
2023-05-05T09:50:46.962Z,53.26
2023-05-05T09:51:46.944Z,52.96
2023-05-05T09:52:48.108Z,52.61
2023-05-05T09:53:46.915Z,52.02
2023-05-05T09:54:46.893Z,51.82
2023-05-05T09:55:46.898Z,51.70
2023-05-05T09:56:46.865Z,55.50
2023-05-05T09:57:46.858Z,52.79
2023-05-05T09:58:46.858Z,54.31
2023-05-05T09:59:46.851Z,55.33
2023-05-05T10:00:46.867Z,52.69
2023-05-05T10:01:46.845Z,52.00
2023-05-05T10:02:46.849Z,51.57
2023-05-05T10:03:46.796Z,51.92
2023-05-05T10:04:46.826Z,51.45
2023-05-05T10:05:46.784Z,51.45
2023-05-05T10:06:46.786Z,53.23
2023-05-05T10:07:46.781Z,51.67
2023-05-05T10:08:46.751Z,54.90
2023-05-05T10:09:46.757Z,51.00
2023-05-05T10:10:46.722Z,50.95
2023-05-05T10:11:46.723Z,54.13
2023-05-05T10:12:46.747Z,50.53
2023-05-05T10:13:46.693Z,51.00
2023-05-05T10:14:46.734Z,50.85
2023-05-05T10:15:46.676Z,51.79
2023-05-05T10:16:46.675Z,51.47
2023-05-05T10:18:02.381Z,55.47
2023-05-05T10:18:46.702Z,54.21
2023-05-05T10:19:46.627Z,54.35
2023-05-05T10:20:46.611Z,56.04
2023-05-05T10:21:46.609Z,51.70
2023-05-05T10:22:46.619Z,54.28
2023-05-05T10:23:46.615Z,52.57
2023-05-05T10:24:46.566Z,53.78
2023-05-05T10:25:46.562Z,54.31
2023-05-05T10:26:46.549Z,56.04
2023-05-05T10:27:46.557Z,54.64
2023-05-05T10:28:46.560Z,55.15
2023-05-05T10:29:46.519Z,53.03
2023-05-05T10:30:46.523Z,50.18
2023-05-05T10:31:46.560Z,53.66
2023-05-05T10:32:57.318Z,53.19
2023-05-05T10:33:46.548Z,53.31
2023-05-05T10:34:46.483Z,53.70
2023-05-05T10:35:46.476Z,51.92
2023-05-05T10:36:46.463Z,51.05
2023-05-05T10:37:46.466Z,51.37
2023-05-05T10:38:46.458Z,51.82
2023-05-05T10:39:46.429Z,52.61
2023-05-05T10:40:46.438Z,52.57
2023-05-05T10:41:46.418Z,54.50
2023-05-05T10:42:46.428Z,50.90
2023-05-05T10:43:46.385Z,51.03
2023-05-05T10:44:46.370Z,51.10
2023-05-05T10:45:46.474Z,51.05
2023-05-05T10:46:46.422Z,50.21
2023-05-05T10:47:46.477Z,47.68
2023-05-05T10:48:46.406Z,50.95
2023-05-05T10:49:46.329Z,48.10
2023-05-05T10:50:46.319Z,49.62
2023-05-05T10:51:46.312Z,49.34
2023-05-05T10:52:46.294Z,48.57
2023-05-05T10:53:46.326Z,51.07
2023-05-05T10:54:46.269Z,51.57
2023-05-05T10:55:46.265Z,54.71
2023-05-05T10:56:46.272Z,51.72
2023-05-05T10:57:46.237Z,49.64
2023-05-05T10:58:59.237Z,49.54
2023-05-05T10:59:46.213Z,47.38
2023-05-05T11:00:46.216Z,49.15
2023-05-05T11:01:46.194Z,49.52
2023-05-05T11:02:46.273Z,51.52
2023-05-05T11:03:46.266Z,47.83
2023-05-05T11:04:46.166Z,47.29
2023-05-05T11:05:46.164Z,45.89
2023-05-05T11:06:46.162Z,47.54
2023-05-05T11:07:46.165Z,52.06
2023-05-05T11:08:46.117Z,45.72
2023-05-05T11:09:46.110Z,47.44
2023-05-05T11:10:46.118Z,46.15
2023-05-05T11:11:46.082Z,46.69
2023-05-05T11:12:46.086Z,47.71
2023-05-05T11:13:46.072Z,50.80
2023-05-05T11:14:46.090Z,56.03
2023-05-05T11:15:46.059Z,58.68
2023-05-05T11:16:46.121Z,55.88
2023-05-05T11:17:46.080Z,57.29
2023-05-05T11:18:46.018Z,50.33
2023-05-05T11:19:46.069Z,51.32
2023-05-05T11:20:46.039Z,55.18
2023-05-05T11:21:45.976Z,55.24
2023-05-05T11:22:45.964Z,57.86
2023-05-05T11:23:45.978Z,55.47
2023-05-05T11:24:45.982Z,52.26
2023-05-05T11:25:45.948Z,50.53
2023-05-05T11:26:45.930Z,52.24
2023-05-05T11:27:45.920Z,56.60
2023-05-05T11:28:45.929Z,56.57
2023-05-05T11:29:45.904Z,52.39
2023-05-05T11:30:45.900Z,52.26
2023-05-05T11:31:45.898Z,51.50
2023-05-05T11:32:45.914Z,50.26
2023-05-05T11:33:45.879Z,48.92
2023-05-05T11:34:45.864Z,50.48
2023-05-05T11:35:45.844Z,50.13
2023-05-05T11:36:45.819Z,49.00
2023-05-05T11:37:45.824Z,47.41
2023-05-05T11:38:45.886Z,46.77
2023-05-05T11:39:45.798Z,49.08
2023-05-05T11:40:45.798Z,49.38
2023-05-05T11:41:45.763Z,50.56
2023-05-05T11:42:45.757Z,51.75
2023-05-05T11:43:45.762Z,49.99
2023-05-05T11:44:45.743Z,50.51
2023-05-05T11:45:45.721Z,51.10
2023-05-05T11:46:45.771Z,55.47
2023-05-05T11:47:46.643Z,54.33
2023-05-05T11:48:45.710Z,54.68
2023-05-05T11:49:45.689Z,56.83
2023-05-05T11:50:45.675Z,56.03
2023-05-05T11:51:45.673Z,56.56
2023-05-05T11:52:45.709Z,54.91
2023-05-05T11:53:45.655Z,55.57
2023-05-05T11:54:45.636Z,55.04
2023-05-05T11:55:45.621Z,48.42
2023-05-05T11:56:45.639Z,53.23
2023-05-05T11:57:45.601Z,52.96
2023-05-05T11:58:45.602Z,48.65
2023-05-05T11:59:46.308Z,51.05
2023-05-05T12:00:45.587Z,47.19
2023-05-05T12:01:45.571Z,49.79
2023-05-05T12:02:45.624Z,51.89
2023-05-05T12:03:46.217Z,47.68
2023-05-05T12:04:45.576Z,50.23
2023-05-05T12:05:45.540Z,50.85
2023-05-05T12:06:45.538Z,53.52
2023-05-05T12:07:45.529Z,55.16
2023-05-05T12:08:45.490Z,60.75
2023-05-05T12:09:45.489Z,55.86
2023-05-05T12:10:45.494Z,55.49
2023-05-05T12:11:45.476Z,55.32
2023-05-05T12:12:45.484Z,55.91
2023-05-05T12:13:45.432Z,55.02
2023-05-05T12:14:45.429Z,54.82
2023-05-05T12:15:45.407Z,54.82
2023-05-05T12:16:45.451Z,55.44
2023-05-05T12:17:45.402Z,56.84
2023-05-05T12:18:45.403Z,62.10
2023-05-05T12:19:45.393Z,57.28
2023-05-05T12:20:45.395Z,56.38
2023-05-05T12:21:45.353Z,60.25
2023-05-05T12:22:45.364Z,61.61
2023-05-05T12:23:45.341Z,55.66
2023-05-05T12:24:45.360Z,61.32
2023-05-05T12:25:45.311Z,57.86
2023-05-05T12:26:45.297Z,56.48
2023-05-05T12:27:45.295Z,57.78
2023-05-05T12:28:45.276Z,56.79
2023-05-05T12:29:45.262Z,60.95
2023-05-05T12:30:45.351Z,60.72
2023-05-05T12:31:45.289Z,59.02
2023-05-05T12:32:45.330Z,59.62
2023-05-05T12:33:45.231Z,57.46
2023-05-05T12:34:45.349Z,59.58
2023-05-05T12:35:45.265Z,58.98
2023-05-05T12:36:45.207Z,55.84
2023-05-05T12:37:45.184Z,58.14
2023-05-05T12:38:45.184Z,58.84
2023-05-05T12:39:45.181Z,64.30
2023-05-05T12:40:45.282Z,61.77
2023-05-05T12:41:45.158Z,61.87
2023-05-05T12:42:46.318Z,58.98
2023-05-05T12:43:45.159Z,57.14
2023-05-05T12:44:45.155Z,59.74
2023-05-05T12:45:45.138Z,61.43
2023-05-05T12:46:45.090Z,58.91
2023-05-05T12:47:45.126Z,58.24
2023-05-05T12:48:47.970Z,61.63
2023-05-05T12:49:45.084Z,63.63
2023-05-05T12:50:45.076Z,59.47
2023-05-05T12:51:45.042Z,59.42
2023-05-05T12:52:45.063Z,63.79
2023-05-05T12:53:45.046Z,61.89
2023-05-05T12:54:45.064Z,63.39
2023-05-05T12:55:45.025Z,65.19
2023-05-05T12:56:44.998Z,65.26
2023-05-05T12:57:44.982Z,63.46
2023-05-05T12:58:45.009Z,63.17
2023-05-05T12:59:44.971Z,59.69
2023-05-05T13:00:45.011Z,60.52
2023-05-05T13:01:45.027Z,65.22
2023-05-05T13:02:45.106Z,64.42
2023-05-05T13:03:44.925Z,66.59
2023-05-05T13:04:44.915Z,63.72
2023-05-05T13:05:44.904Z,63.42
2023-05-05T13:06:44.896Z,64.72
2023-05-05T13:07:44.907Z,65.72
2023-05-05T13:08:44.897Z,65.33
2023-05-05T13:09:44.883Z,66.13
2023-05-05T13:10:44.845Z,62.55
2023-05-05T13:11:44.820Z,67.25
2023-05-05T13:12:44.912Z,67.25
2023-05-05T13:13:44.831Z,63.85
2023-05-05T13:14:44.863Z,64.65
2023-05-05T13:15:44.822Z,67.55
2023-05-05T13:16:44.789Z,66.89
2023-05-05T13:17:44.843Z,67.29
2023-05-05T13:18:44.779Z,67.79
2023-05-05T13:19:44.749Z,70.09
2023-05-05T13:20:44.754Z,67.49
2023-05-05T13:21:44.748Z,69.62
2023-05-05T13:22:44.791Z,65.31
2023-05-05T13:23:44.734Z,69.46
2023-05-05T13:24:51.719Z,71.96
2023-05-05T13:25:44.699Z,73.36
2023-05-05T13:26:44.729Z,73.00
2023-05-05T13:27:44.740Z,72.80
2023-05-05T13:28:44.700Z,76.31
2023-05-05T13:29:44.676Z,78.85
2023-05-05T13:30:44.669Z,77.35
2023-05-05T13:31:44.787Z,76.15
2023-05-05T13:32:44.696Z,77.55
2023-05-05T13:33:44.604Z,75.78
2023-05-05T13:34:44.639Z,75.31
2023-05-05T13:35:44.586Z,76.72
2023-05-05T13:36:44.622Z,79.53
2023-05-05T13:37:44.561Z,81.24
2023-05-05T13:38:44.570Z,83.45
2023-05-05T13:39:44.560Z,83.15
2023-05-05T13:40:44.627Z,78.46
2023-05-05T13:41:44.520Z,83.18
2023-05-05T13:42:44.519Z,83.69
2023-05-05T13:43:44.545Z,82.52
2023-05-05T13:44:44.557Z,86.14
2023-05-05T13:45:44.524Z,86.20
2023-05-05T13:46:44.503Z,87.65
2023-05-05T13:47:44.512Z,84.94
2023-05-05T13:48:44.986Z,85.48
2023-05-05T13:49:44.471Z,82.50
2023-05-05T13:50:44.446Z,80.10
2023-05-05T13:51:44.408Z,79.50
2023-05-05T13:52:44.411Z,81.88
2023-05-05T13:53:44.511Z,84.99
2023-05-05T13:54:44.424Z,89.08
2023-05-05T13:55:44.377Z,91.86
2023-05-05T13:56:44.393Z,96.56
2023-05-05T13:57:44.439Z,96.81
2023-05-05T13:58:44.356Z,97.20
2023-05-05T13:59:44.361Z,99.99
2023-05-05T14:00:44.355Z,99.99
2023-05-05T14:01:44.328Z,99.99
2023-05-05T14:02:44.357Z,99.99
2023-05-05T14:03:44.306Z,99.99
2023-05-05T14:04:44.281Z,99.99
2023-05-05T14:05:44.280Z,99.99
2023-05-05T14:06:44.324Z,99.99
2023-05-05T14:07:44.268Z,99.99
2023-05-05T14:08:44.246Z,99.99
2023-05-05T14:09:44.261Z,99.99
2023-05-05T14:10:46.087Z,99.99
2023-05-05T14:11:44.251Z,99.99
2023-05-05T14:12:44.277Z,99.99
2023-05-05T14:13:44.196Z,99.99
2023-05-05T14:14:44.219Z,99.99
2023-05-05T14:15:44.173Z,99.99
2023-05-05T14:16:44.192Z,99.99
2023-05-05T14:17:44.221Z,99.99
2023-05-05T14:18:44.149Z,99.99
2023-05-05T14:19:44.139Z,99.99
2023-05-05T14:20:44.132Z,99.99
2023-05-05T14:21:44.110Z,99.99
2023-05-05T14:22:44.152Z,99.99
2023-05-05T14:23:44.104Z,99.99
2023-05-05T14:24:44.067Z,99.99
2023-05-05T14:25:44.073Z,99.99
2023-05-05T14:26:44.055Z,99.99
2023-05-05T14:27:44.034Z,99.99
2023-05-05T14:28:44.042Z,99.99
2023-05-05T14:29:44.015Z,99.99
2023-05-05T14:30:44.030Z,99.99
2023-05-05T14:31:44.047Z,99.99
2023-05-05T14:32:44.026Z,99.99
2023-05-05T14:33:43.976Z,99.99
2023-05-05T14:34:43.972Z,99.99
2023-05-05T14:35:43.981Z,99.99
2023-05-05T14:36:43.951Z,99.99
2023-05-05T14:37:43.946Z,99.99
2023-05-05T14:38:43.945Z,99.99
2023-05-05T14:39:43.919Z,99.99
2023-05-05T14:40:43.909Z,99.99
2023-05-05T14:41:43.897Z,99.99
2023-05-05T14:42:43.895Z,99.99
2023-05-05T14:43:43.882Z,99.99
2023-05-05T14:44:43.947Z,99.99
2023-05-05T14:45:43.895Z,99.99
2023-05-05T14:46:45.985Z,99.99
2023-05-05T14:47:43.870Z,99.99
2023-05-05T14:48:43.838Z,99.99
2023-05-05T14:49:43.827Z,99.99
2023-05-05T14:50:43.830Z,99.99
2023-05-05T14:51:43.806Z,99.99
2023-05-05T14:52:43.775Z,99.99
2023-05-05T14:53:43.776Z,99.99
2023-05-05T14:54:43.765Z,99.99
2023-05-05T14:55:43.757Z,99.99
2023-05-05T14:56:43.747Z,99.99
2023-05-05T14:57:43.741Z,99.99
2023-05-05T14:58:43.730Z,99.99
2023-05-05T14:59:43.720Z,99.99
2023-05-05T15:00:43.706Z,99.99
2023-05-05T15:01:43.697Z,99.99
2023-05-05T15:02:43.814Z,99.99
2023-05-05T15:03:43.740Z,99.99
2023-05-05T15:04:43.644Z,99.99
2023-05-05T15:05:43.637Z,99.99
2023-05-05T15:06:43.628Z,99.99
2023-05-05T15:07:43.659Z,99.99
2023-05-05T15:08:43.610Z,99.99
2023-05-05T15:09:43.606Z,99.99
2023-05-05T15:10:43.611Z,99.99
2023-05-05T15:11:43.608Z,99.99
2023-05-05T15:12:43.625Z,99.99
2023-05-05T15:13:43.550Z,99.99
2023-05-05T15:14:43.580Z,99.99
2023-05-05T15:15:43.616Z,99.99
2023-05-05T15:16:43.536Z,99.99
2023-05-05T15:17:43.578Z,99.99
2023-05-05T15:18:43.518Z,99.99
2023-05-05T15:19:43.520Z,99.99
2023-05-05T15:20:43.488Z,99.99
2023-05-05T15:21:43.494Z,99.99
2023-05-05T15:22:43.509Z,99.99
2023-05-05T15:23:43.466Z,99.99
2023-05-05T15:24:43.476Z,99.99
2023-05-05T15:25:43.457Z,99.99
2023-05-05T15:26:43.415Z,99.99
2023-05-05T15:27:43.426Z,99.99
2023-05-05T15:28:43.423Z,99.99
2023-05-05T15:29:43.418Z,99.99
2023-05-05T15:30:43.391Z,99.99
2023-05-05T15:31:43.493Z,99.99
2023-05-05T15:32:43.518Z,99.99
2023-05-05T15:33:43.482Z,99.99
2023-05-05T15:34:43.418Z,99.99
2023-05-05T15:35:43.389Z,99.99
2023-05-05T15:36:43.353Z,99.99
2023-05-05T15:37:43.309Z,99.99
2023-05-05T15:38:43.315Z,99.99
2023-05-05T15:39:43.287Z,99.99
2023-05-05T15:40:43.280Z,99.99
2023-05-05T15:41:43.282Z,99.99
2023-05-05T15:42:43.283Z,99.99
2023-05-05T15:43:43.253Z,99.99
2023-05-05T15:44:43.241Z,99.99
2023-05-05T15:45:43.223Z,99.99
2023-05-05T15:46:43.251Z,99.99
2023-05-05T15:47:43.287Z,99.99
2023-05-05T15:48:43.215Z,99.99
2023-05-05T15:49:43.201Z,99.99
2023-05-05T15:50:43.169Z,99.99
2023-05-05T15:51:43.152Z,99.99
2023-05-05T15:52:43.182Z,99.99
2023-05-05T15:53:43.149Z,99.99
2023-05-05T15:54:43.130Z,99.99
2023-05-05T15:55:43.127Z,99.99
2023-05-05T15:56:43.133Z,99.99
2023-05-05T15:57:43.090Z,99.99
2023-05-05T15:58:43.112Z,99.99
2023-05-05T15:59:43.088Z,99.99
2023-05-05T16:00:43.054Z,99.99
2023-05-05T16:01:43.097Z,99.99
2023-05-05T16:02:43.149Z,99.99
2023-05-05T16:03:43.170Z,99.99
2023-05-05T16:04:43.029Z,99.99
2023-05-05T16:05:43.020Z,99.99
2023-05-05T16:06:42.994Z,99.99
2023-05-05T16:07:43.040Z,99.99
2023-05-05T16:08:42.972Z,99.99
2023-05-05T16:09:42.981Z,99.99
2023-05-05T16:10:42.967Z,99.99
2023-05-05T16:11:42.982Z,99.99
2023-05-05T16:12:43.006Z,99.99
2023-05-05T16:13:42.942Z,99.99
2023-05-05T16:14:42.937Z,99.99
2023-05-05T16:15:42.901Z,99.99
2023-05-05T16:16:43.003Z,99.99
2023-05-05T16:17:42.913Z,99.99
2023-05-05T16:18:42.857Z,99.99
2023-05-05T16:19:42.855Z,99.99
2023-05-05T16:20:42.876Z,99.99
2023-05-05T16:21:42.855Z,99.99
2023-05-05T16:22:42.834Z,99.99
2023-05-05T16:23:42.808Z,99.99
2023-05-05T16:24:44.296Z,99.99
2023-05-05T16:25:42.801Z,99.99
2023-05-05T16:26:42.812Z,99.99
2023-05-05T16:27:42.780Z,99.99
2023-05-05T16:28:42.934Z,99.99
2023-05-05T16:29:42.759Z,99.99
2023-05-05T16:30:42.825Z,99.99
2023-05-05T16:31:42.814Z,99.99
2023-05-05T16:32:42.804Z,99.99
2023-05-05T16:33:42.729Z,99.99
2023-05-05T16:34:42.736Z,99.99
2023-05-05T16:35:42.730Z,99.99
2023-05-05T16:36:44.201Z,99.99
2023-05-05T16:37:42.688Z,99.99
2023-05-05T16:38:42.661Z,99.99
2023-05-05T16:39:42.677Z,99.99
2023-05-05T16:40:42.674Z,99.99
2023-05-05T16:41:42.654Z,99.99
2023-05-05T16:42:44.436Z,99.99
2023-05-05T16:43:42.602Z,99.99
2023-05-05T16:44:42.676Z,99.99
2023-05-05T16:45:42.643Z,99.99
2023-05-05T16:46:42.611Z,99.99
2023-05-05T16:47:42.602Z,99.99
2023-05-05T16:48:42.554Z,99.99
2023-05-05T16:49:42.552Z,99.99
2023-05-05T16:50:42.540Z,99.99
2023-05-05T16:51:42.541Z,99.99
2023-05-05T16:52:42.512Z,99.99